createdAt,value
2018-11-26T00:00:07.555Z,0
2018-11-26T00:00:48.101Z,0
2018-11-26T00:01:28.663Z,0
2018-11-26T00:02:09.215Z,0
2018-11-26T00:02:49.778Z,0
2018-11-26T00:03:30.336Z,0
2018-11-26T00:04:10.885Z,0
2018-11-26T00:04:51.446Z,0
2018-11-26T00:05:32.008Z,0
2018-11-26T00:06:12.571Z,0
2018-11-26T00:06:53.131Z,0
2018-11-26T00:07:33.689Z,0
2018-11-26T00:08:14.260Z,0
2018-11-26T00:08:54.836Z,0
2018-11-26T00:09:35.413Z,0
2018-11-26T00:10:15.983Z,0
2018-11-26T00:10:56.538Z,0
2018-11-26T00:11:37.099Z,0
2018-11-26T00:12:17.681Z,0
2018-11-26T00:12:58.242Z,0
2018-11-26T00:13:38.797Z,0
2018-11-26T00:14:19.358Z,0
2018-11-26T00:14:59.916Z,0
2018-11-26T00:15:40.482Z,0
2018-11-26T00:16:21.031Z,0
2018-11-26T00:17:01.599Z,0
2018-11-26T00:17:42.154Z,0
2018-11-26T00:18:22.702Z,0
2018-11-26T00:19:03.257Z,0
2018-11-26T00:19:43.818Z,0
2018-11-26T00:20:24.385Z,0
2018-11-26T00:21:04.936Z,0
2018-11-26T00:21:45.502Z,0
2018-11-26T00:22:26.051Z,0
2018-11-26T00:23:06.620Z,0
2018-11-26T00:23:47.173Z,0
2018-11-26T00:24:27.735Z,0
2018-11-26T00:25:08.296Z,0
2018-11-26T00:25:48.871Z,0
2018-11-26T00:26:29.410Z,0
2018-11-26T00:27:09.971Z,0
2018-11-26T00:27:50.531Z,0
2018-11-26T00:28:31.091Z,0
2018-11-26T00:29:11.655Z,0
2018-11-26T00:29:52.225Z,0
2018-11-26T00:30:32.802Z,0
2018-11-26T00:31:13.353Z,0
2018-11-26T00:31:53.921Z,0
2018-11-26T00:32:34.477Z,0
2018-11-26T00:33:15.044Z,0
2018-11-26T00:33:55.611Z,0
2018-11-26T00:34:36.180Z,0
2018-11-26T00:35:16.760Z,0
2018-11-26T00:35:57.340Z,0
2018-11-26T00:36:37.907Z,0
2018-11-26T00:37:18.470Z,0
2018-11-26T00:37:59.018Z,0
2018-11-26T00:38:39.583Z,0
2018-11-26T00:39:20.187Z,0
2018-11-26T00:40:00.727Z,0
2018-11-26T00:40:41.291Z,0
2018-11-26T00:41:21.866Z,0
2018-11-26T00:42:02.428Z,0
2018-11-26T00:42:42.985Z,0
2018-11-26T00:43:23.537Z,0
2018-11-26T00:44:04.090Z,0
2018-11-26T00:44:44.643Z,0
2018-11-26T00:45:25.214Z,0
2018-11-26T00:46:05.781Z,0
2018-11-26T00:46:46.336Z,0
2018-11-26T00:47:26.891Z,0
2018-11-26T00:48:07.452Z,0
2018-11-26T00:48:48.039Z,0
2018-11-26T00:49:28.590Z,0
2018-11-26T00:50:09.166Z,0
2018-11-26T00:50:49.726Z,0
2018-11-26T00:51:30.309Z,0
2018-11-26T00:52:10.842Z,0
2018-11-26T00:52:51.404Z,0
2018-11-26T00:53:31.960Z,0
2018-11-26T00:54:12.525Z,0
2018-11-26T00:54:53.098Z,0
2018-11-26T00:55:33.636Z,0
2018-11-26T00:56:14.192Z,0
2018-11-26T00:56:54.754Z,0
2018-11-26T00:57:35.306Z,0
2018-11-26T00:58:15.884Z,0
2018-11-26T00:58:56.446Z,0
2018-11-26T00:59:37.008Z,0
2018-11-26T01:00:17.569Z,0
2018-11-26T01:00:58.124Z,0
2018-11-26T01:01:38.681Z,0
2018-11-26T01:02:19.256Z,0
2018-11-26T01:02:59.816Z,0
2018-11-26T01:03:40.390Z,0
2018-11-26T01:04:20.948Z,0
2018-11-26T01:05:01.527Z,0
2018-11-26T01:05:42.088Z,0
2018-11-26T01:06:22.648Z,0
2018-11-26T05:21:46.874Z,0
2018-11-26T05:22:27.432Z,0
2018-11-26T05:23:07.982Z,0
2018-11-26T05:23:48.616Z,0
2018-11-26T05:24:29.181Z,0
2018-11-26T05:25:09.735Z,0
2018-11-26T05:25:50.294Z,0
2018-11-26T05:26:30.843Z,0
2018-11-26T05:27:11.399Z,0
2018-11-26T05:27:51.950Z,0
2018-11-26T05:28:32.507Z,0
2018-11-26T05:29:13.053Z,0
2018-11-26T05:29:53.609Z,0
2018-11-26T05:30:34.170Z,0
2018-11-26T05:31:14.730Z,0
2018-11-26T05:31:55.278Z,0
2018-11-26T05:32:35.828Z,0
2018-11-26T05:33:16.389Z,0
2018-11-26T05:33:56.946Z,0
2018-11-26T05:34:37.502Z,0
2018-11-26T05:35:18.055Z,0
2018-11-26T05:35:58.610Z,0
2018-11-26T05:36:39.169Z,0
2018-11-26T05:37:20.092Z,0
2018-11-26T05:38:03.396Z,0
2018-11-26T05:38:44.019Z,0
2018-11-26T05:39:24.648Z,0
2018-11-26T05:40:06.197Z,0
2018-11-26T05:40:46.986Z,0
2018-11-26T05:41:27.549Z,0
2018-11-26T05:42:08.111Z,0
2018-11-26T05:42:48.691Z,0
2018-11-26T05:43:29.274Z,0
2018-11-26T05:44:10.801Z,0
2018-11-26T05:44:51.790Z,0
2018-11-26T05:45:32.396Z,0
2018-11-26T05:46:12.961Z,0
2018-11-26T05:46:53.521Z,0
2018-11-26T05:47:34.087Z,0
2018-11-26T05:48:14.708Z,0
2018-11-26T05:48:55.261Z,0
2018-11-26T05:49:35.826Z,0
2018-11-26T05:50:16.391Z,0
2018-11-26T05:50:57.042Z,0
2018-11-26T05:51:37.718Z,0
2018-11-26T05:52:19.072Z,0
2018-11-26T05:52:59.655Z,0
2018-11-26T05:53:40.217Z,0
2018-11-26T05:54:20.774Z,0
2018-11-26T05:55:01.333Z,0
2018-11-26T05:55:41.906Z,0
2018-11-26T05:56:22.465Z,0
2018-11-26T05:57:03.019Z,0
2018-11-26T05:57:43.724Z,0
2018-11-26T05:58:24.285Z,0
2018-11-26T05:59:04.849Z,0
2018-11-26T05:59:45.443Z,0
2018-11-26T06:00:26.041Z,0
2018-11-26T06:01:06.598Z,0
2018-11-26T06:01:47.170Z,0
2018-11-26T06:02:27.723Z,0
2018-11-26T06:03:08.280Z,0
2018-11-26T06:03:48.837Z,0
2018-11-26T06:04:29.409Z,0
2018-11-26T06:05:09.965Z,0
2018-11-26T06:05:50.526Z,0
2018-11-26T06:06:31.086Z,0
2018-11-26T06:07:11.651Z,0
2018-11-26T06:07:52.215Z,0
2018-11-26T06:08:32.775Z,0
2018-11-26T06:09:13.336Z,0
2018-11-26T06:09:53.889Z,0
2018-11-26T06:10:34.450Z,0
2018-11-26T06:11:14.996Z,0
2018-11-26T06:11:55.559Z,0
2018-11-26T06:12:36.122Z,0
2018-11-26T06:13:16.678Z,0
2018-11-26T06:13:57.231Z,0
2018-11-26T06:14:37.800Z,0
2018-11-26T06:15:18.369Z,0
2018-11-26T06:15:58.927Z,0
2018-11-26T06:16:39.485Z,0
2018-11-26T06:17:20.050Z,0
2018-11-26T06:18:00.599Z,0
2018-11-26T06:18:41.154Z,0
2018-11-26T06:19:21.734Z,0
2018-11-26T06:20:02.310Z,0
2018-11-26T06:20:42.859Z,4
2018-11-26T06:21:23.414Z,4
2018-11-26T06:22:03.969Z,4
2018-11-26T06:22:44.526Z,0
2018-11-26T06:23:25.086Z,0
2018-11-26T06:24:05.643Z,0
2018-11-26T06:24:46.208Z,0
2018-11-26T06:25:26.766Z,4
2018-11-26T06:26:07.330Z,4
2018-11-26T06:26:47.886Z,4
2018-11-26T06:27:28.476Z,4
2018-11-26T06:28:09.030Z,4
2018-11-26T06:28:49.586Z,4
2018-11-26T06:29:30.163Z,4
2018-11-26T06:30:10.719Z,4
2018-11-26T06:30:51.271Z,4
2018-11-26T06:31:31.843Z,4
2018-11-26T06:32:12.424Z,8
2018-11-26T06:32:52.991Z,8
2018-11-26T06:33:33.547Z,8
2018-11-26T06:34:14.108Z,8
2018-11-26T06:34:54.673Z,12
2018-11-26T06:35:35.224Z,8
2018-11-26T06:36:15.794Z,12
2018-11-26T06:36:56.403Z,8
2018-11-26T06:37:36.969Z,12
2018-11-26T06:38:17.531Z,12
2018-11-26T06:38:58.117Z,16
2018-11-26T06:39:38.699Z,16
2018-11-26T06:40:19.258Z,16
2018-11-26T06:40:59.808Z,16
2018-11-26T06:41:40.358Z,24
2018-11-26T06:42:20.934Z,24
2018-11-26T06:43:01.497Z,24
2018-11-26T06:43:42.089Z,24
2018-11-26T06:44:22.649Z,20
2018-11-26T06:45:03.208Z,24
2018-11-26T06:45:43.767Z,28
2018-11-26T06:46:24.325Z,28
2018-11-26T06:47:04.880Z,32
2018-11-26T06:47:45.451Z,36
2018-11-26T06:48:26.011Z,36
2018-11-26T06:49:06.570Z,36
2018-11-26T06:49:47.138Z,40
2018-11-26T06:50:27.705Z,36
2018-11-26T06:51:08.271Z,36
2018-11-26T06:51:48.842Z,40
2018-11-26T06:52:29.404Z,40
2018-11-26T06:53:09.965Z,36
2018-11-26T06:53:50.530Z,44
2018-11-26T06:54:31.087Z,44
2018-11-26T06:55:11.645Z,48
2018-11-26T06:55:52.204Z,48
2018-11-26T06:56:32.768Z,48
2018-11-26T06:57:13.318Z,48
2018-11-26T06:57:53.885Z,48
2018-11-26T06:58:34.442Z,44
2018-11-26T06:59:15.004Z,48
2018-11-26T06:59:55.561Z,52
2018-11-26T07:00:36.117Z,52
2018-11-26T07:01:16.675Z,48
2018-11-26T07:01:57.225Z,48
2018-11-26T07:02:37.789Z,52
2018-11-26T07:03:18.359Z,52
2018-11-26T07:03:58.914Z,48
2018-11-26T07:04:39.478Z,48
2018-11-26T07:05:20.036Z,48
2018-11-26T07:06:00.588Z,52
2018-11-26T07:06:41.144Z,52
2018-11-26T07:07:21.729Z,52
2018-11-26T07:08:02.292Z,56
2018-11-26T07:08:42.876Z,56
2018-11-26T07:09:23.441Z,60
2018-11-26T07:10:04.011Z,60
2018-11-26T07:10:44.582Z,52
2018-11-26T07:11:25.139Z,52
2018-11-26T07:12:05.693Z,56
2018-11-26T07:12:46.258Z,56
2018-11-26T07:13:26.805Z,56
2018-11-26T07:14:07.358Z,60
2018-11-26T07:14:47.940Z,64
2018-11-26T07:15:28.501Z,64
2018-11-26T07:16:09.061Z,64
2018-11-26T07:16:49.625Z,60
2018-11-26T07:17:30.182Z,56
2018-11-26T07:18:10.757Z,60
2018-11-26T07:18:51.361Z,64
2018-11-26T07:19:31.915Z,64
2018-11-26T07:20:12.484Z,68
2018-11-26T07:20:53.031Z,68
2018-11-26T07:21:33.651Z,64
2018-11-26T07:22:14.213Z,72
2018-11-26T07:22:54.779Z,80
2018-11-26T07:23:35.333Z,92
2018-11-26T07:24:15.893Z,92
2018-11-26T07:24:56.462Z,92
2018-11-26T07:25:37.022Z,92
2018-11-26T07:26:17.585Z,100
2018-11-26T07:26:58.141Z,100
2018-11-26T07:27:38.708Z,100
2018-11-26T07:28:19.265Z,104
2018-11-26T07:28:59.829Z,100
2018-11-26T07:29:40.390Z,96
2018-11-26T07:30:20.956Z,100
2018-11-26T07:31:01.502Z,104
2018-11-26T07:31:42.064Z,104
2018-11-26T07:32:22.626Z,104
2018-11-26T07:33:03.185Z,100
2018-11-26T07:33:43.781Z,104
2018-11-26T07:34:24.362Z,116
2018-11-26T07:35:04.920Z,116
2018-11-26T07:35:45.711Z,116
2018-11-26T07:36:26.274Z,124
2018-11-26T07:37:06.837Z,124
2018-11-26T07:37:47.407Z,124
2018-11-26T07:38:28.096Z,132
2018-11-26T07:39:08.657Z,136
2018-11-26T07:39:49.215Z,144
2018-11-26T07:40:29.780Z,156
2018-11-26T07:41:10.371Z,164
2018-11-26T07:41:50.931Z,164
2018-11-26T07:42:31.513Z,168
2018-11-26T07:43:12.065Z,188
2018-11-26T07:43:52.625Z,192
2018-11-26T07:44:33.194Z,176
2018-11-26T07:45:13.763Z,168
2018-11-26T07:45:54.325Z,188
2018-11-26T07:46:34.882Z,200
2018-11-26T07:47:15.436Z,204
2018-11-26T07:47:55.992Z,212
2018-11-26T07:48:36.560Z,224
2018-11-26T07:49:17.298Z,216
2018-11-26T07:49:57.877Z,216
2018-11-26T07:50:38.425Z,232
2018-11-26T07:51:18.980Z,228
2018-11-26T07:51:59.592Z,220
2018-11-26T07:52:40.171Z,228
2018-11-26T07:53:20.724Z,240
2018-11-26T07:54:01.285Z,252
2018-11-26T07:54:41.853Z,268
2018-11-26T07:55:22.421Z,284
2018-11-26T07:56:02.977Z,276
2018-11-26T07:56:43.550Z,296
2018-11-26T07:57:24.135Z,288
2018-11-26T07:58:04.693Z,304
2018-11-26T07:58:45.253Z,316
2018-11-26T07:59:25.810Z,344
2018-11-26T08:00:06.376Z,344
2018-11-26T08:00:46.931Z,324
2018-11-26T08:01:27.488Z,328
2018-11-26T08:02:08.053Z,320
2018-11-26T08:02:48.640Z,304
2018-11-26T08:03:29.200Z,312
2018-11-26T08:04:09.764Z,324
2018-11-26T08:04:50.341Z,292
2018-11-26T08:05:30.880Z,288
2018-11-26T08:06:11.440Z,300
2018-11-26T08:06:52.005Z,312
2018-11-26T08:07:32.564Z,300
2018-11-26T08:08:13.128Z,276
2018-11-26T08:08:53.679Z,272
2018-11-26T08:09:34.244Z,288
2018-11-26T08:10:14.797Z,292
2018-11-26T08:10:55.346Z,292
2018-11-26T08:11:35.930Z,308
2018-11-26T08:12:16.500Z,308
2018-11-26T08:12:57.058Z,320
2018-11-26T08:13:37.610Z,320
2018-11-26T08:14:18.160Z,300
2018-11-26T08:14:58.719Z,300
2018-11-26T08:15:39.287Z,312
2018-11-26T08:16:19.861Z,328
2018-11-26T08:17:00.426Z,340
2018-11-26T08:17:40.982Z,348
2018-11-26T08:18:21.544Z,360
2018-11-26T08:19:02.105Z,368
2018-11-26T08:19:42.659Z,404
2018-11-26T08:20:23.223Z,436
2018-11-26T08:21:03.779Z,480
2018-11-26T08:21:44.351Z,440
2018-11-26T08:22:24.910Z,424
2018-11-26T08:23:05.455Z,428
2018-11-26T08:23:46.022Z,428
2018-11-26T08:24:26.608Z,416
2018-11-26T08:25:07.179Z,408
2018-11-26T08:25:47.732Z,440
2018-11-26T08:26:28.309Z,444
2018-11-26T08:27:08.864Z,448
2018-11-26T08:27:49.432Z,484
2018-11-26T08:28:29.983Z,488
2018-11-26T08:29:10.543Z,500
2018-11-26T08:29:51.105Z,484
2018-11-26T08:30:31.695Z,480
2018-11-26T08:31:12.251Z,504
2018-11-26T08:31:52.815Z,552
2018-11-26T08:32:34.068Z,588
2018-11-26T08:34:46.312Z,544
2018-11-26T08:35:26.880Z,556
2018-11-26T08:36:07.476Z,544
2018-11-26T08:36:48.123Z,616
2018-11-26T08:37:28.752Z,632
2018-11-26T08:38:09.324Z,560
2018-11-26T08:38:49.864Z,548
2018-11-26T08:39:30.429Z,556
2018-11-26T08:40:11.068Z,528
2018-11-26T08:40:51.587Z,528
2018-11-26T08:41:32.146Z,508
2018-11-26T08:42:12.705Z,532
2018-11-26T08:42:53.273Z,560
2018-11-26T08:43:33.849Z,588
2018-11-26T08:44:14.450Z,612
2018-11-26T08:44:55.035Z,632
2018-11-26T08:45:35.639Z,616
2018-11-26T08:46:16.209Z,696
2018-11-26T08:46:56.773Z,696
2018-11-26T08:47:37.336Z,648
2018-11-26T08:48:17.894Z,692
2018-11-26T08:48:58.470Z,656
2018-11-26T08:49:39.011Z,664
2018-11-26T08:50:19.574Z,652
2018-11-26T08:51:00.138Z,636
2018-11-26T08:51:40.685Z,660
2018-11-26T08:52:21.261Z,668
2018-11-26T08:53:01.823Z,700
2018-11-26T08:53:42.400Z,716
2018-11-26T08:54:22.988Z,672
2018-11-26T08:55:03.572Z,680
2018-11-26T08:55:44.126Z,728
2018-11-26T08:56:24.691Z,700
2018-11-26T08:57:05.263Z,704
2018-11-26T08:57:46.066Z,696
2018-11-26T08:58:26.598Z,732
2018-11-26T08:59:07.158Z,768
2018-11-26T08:59:47.806Z,812
2018-11-26T09:00:28.634Z,776
2018-11-26T09:01:09.320Z,828
2018-11-26T09:01:50.094Z,772
2018-11-26T09:02:30.805Z,732
2018-11-26T09:03:11.365Z,788
2018-11-26T09:03:51.909Z,796
2018-11-26T09:04:32.463Z,772
2018-11-26T09:05:13.019Z,752
2018-11-26T09:05:53.582Z,756
2018-11-26T09:06:34.137Z,796
2018-11-26T09:07:14.688Z,836
2018-11-26T09:07:55.243Z,816
2018-11-26T09:08:35.800Z,864
2018-11-26T09:09:16.399Z,848
2018-11-26T09:09:56.949Z,840
2018-11-26T09:10:37.528Z,808
2018-11-26T09:11:18.075Z,808
2018-11-26T09:11:58.638Z,800
2018-11-26T09:12:39.215Z,848
2018-11-26T09:13:19.761Z,792
2018-11-26T09:14:00.324Z,744
2018-11-26T09:14:40.924Z,772
2018-11-26T09:15:21.482Z,840
2018-11-26T09:16:02.020Z,888
2018-11-26T09:16:42.575Z,940
2018-11-26T09:17:23.129Z,928
2018-11-26T09:18:03.695Z,872
2018-11-26T09:18:44.256Z,868
2018-11-26T09:19:24.833Z,920
2018-11-26T09:20:05.385Z,912
2018-11-26T09:20:45.959Z,872
2018-11-26T09:21:26.512Z,860
2018-11-26T09:22:07.091Z,892
2018-11-26T09:22:47.648Z,900
2018-11-26T09:23:28.208Z,936
2018-11-26T09:24:08.764Z,956
2018-11-26T09:24:49.323Z,968
2018-11-26T09:25:29.869Z,916
2018-11-26T09:26:10.417Z,856
2018-11-26T09:26:50.952Z,868
2018-11-26T09:27:31.531Z,864
2018-11-26T09:28:12.145Z,840
2018-11-26T09:28:52.696Z,808
2018-11-26T09:29:33.262Z,816
2018-11-26T09:30:13.809Z,848
2018-11-26T09:30:54.367Z,864
2018-11-26T09:31:34.930Z,916
2018-11-26T09:32:15.486Z,984
2018-11-26T09:32:56.051Z,888
2018-11-26T09:33:36.624Z,848
2018-11-26T09:34:17.188Z,880
2018-11-26T09:34:57.766Z,856
2018-11-26T09:35:38.311Z,880
2018-11-26T09:36:18.913Z,900
2018-11-26T09:36:59.596Z,900
2018-11-26T09:37:40.160Z,920
2018-11-26T09:38:20.724Z,888
2018-11-26T09:39:01.270Z,808
2018-11-26T09:39:41.823Z,748
2018-11-26T09:40:22.377Z,772
2018-11-26T09:41:02.937Z,864
2018-11-26T09:41:43.487Z,852
2018-11-26T09:42:24.052Z,880
2018-11-26T09:43:04.628Z,912
2018-11-26T09:43:45.185Z,860
2018-11-26T09:44:25.754Z,840
2018-11-26T09:45:06.307Z,872
2018-11-26T09:45:46.912Z,908
2018-11-26T09:46:27.469Z,824
2018-11-26T09:47:08.027Z,816
2018-11-26T09:47:48.621Z,920
2018-11-26T09:48:29.163Z,956
2018-11-26T09:49:09.734Z,1036
2018-11-26T09:49:50.296Z,1048
2018-11-26T09:50:30.855Z,1052
2018-11-26T09:51:14.210Z,1068
2018-11-26T09:51:51.955Z,1160
2018-11-26T09:52:32.530Z,1248
2018-11-26T09:53:13.106Z,1200
2018-11-26T09:53:53.679Z,1344
2018-11-26T09:54:34.227Z,1352
2018-11-26T09:55:14.780Z,1344
2018-11-26T09:55:55.365Z,1316
2018-11-26T09:56:35.923Z,1488
2018-11-26T09:57:16.494Z,1484
2018-11-26T09:57:57.055Z,1488
2018-11-26T09:58:37.653Z,1244
2018-11-26T09:59:18.228Z,1148
2018-11-26T09:59:58.792Z,1140
2018-11-26T10:00:39.340Z,1212
2018-11-26T10:01:19.911Z,1160
2018-11-26T10:02:00.479Z,1036
2018-11-26T10:02:41.033Z,1112
2018-11-26T10:03:21.591Z,1248
2018-11-26T10:04:02.139Z,1444
2018-11-26T10:04:42.711Z,1604
2018-11-26T10:05:23.378Z,1628
2018-11-26T10:06:03.953Z,1444
2018-11-26T10:06:44.520Z,1396
2018-11-26T10:07:25.082Z,1396
2018-11-26T10:08:05.643Z,1396
2018-11-26T10:08:46.202Z,1368
2018-11-26T10:09:26.777Z,1268
2018-11-26T10:10:07.331Z,1236
2018-11-26T10:10:48.113Z,1144
2018-11-26T10:11:28.672Z,1164
2018-11-26T10:12:09.244Z,1224
2018-11-26T10:12:49.799Z,1192
2018-11-26T10:13:30.357Z,1268
2018-11-26T10:14:10.918Z,1264
2018-11-26T10:14:51.486Z,1220
2018-11-26T10:15:32.041Z,1240
2018-11-26T10:16:12.603Z,1304
2018-11-26T10:16:53.162Z,1260
2018-11-26T10:17:33.728Z,1248
2018-11-26T10:18:14.294Z,1196
2018-11-26T10:18:54.849Z,1060
2018-11-26T10:19:35.417Z,992
2018-11-26T10:20:15.972Z,1000
2018-11-26T10:20:56.528Z,980
2018-11-26T10:21:37.077Z,1008
2018-11-26T10:22:17.644Z,1044
2018-11-26T10:22:58.207Z,972
2018-11-26T10:23:38.785Z,936
2018-11-26T10:24:19.345Z,948
2018-11-26T10:25:05.716Z,952
2018-11-26T10:25:40.489Z,996
2018-11-26T10:26:21.095Z,1028
2018-11-26T10:27:01.645Z,1056
2018-11-26T10:27:42.224Z,972
2018-11-26T10:28:22.802Z,940
2018-11-26T10:29:03.339Z,928
2018-11-26T10:29:43.894Z,924
2018-11-26T10:30:24.458Z,948
2018-11-26T10:31:04.996Z,1020
2018-11-26T10:31:45.560Z,1004
2018-11-26T10:32:26.120Z,1032
2018-11-26T10:33:06.704Z,1060
2018-11-26T10:33:47.270Z,1100
2018-11-26T10:34:27.830Z,1064
2018-11-26T10:35:08.392Z,1088
2018-11-26T10:35:48.965Z,1096
2018-11-26T10:36:29.595Z,1024
2018-11-26T10:37:10.152Z,1044
2018-11-26T10:37:50.712Z,1160
2018-11-26T10:38:31.364Z,1120
2018-11-26T10:39:11.950Z,1076
2018-11-26T10:39:52.487Z,1172
2018-11-26T10:40:33.046Z,1160
2018-11-26T10:41:13.623Z,1120
2018-11-26T10:41:54.183Z,1140
2018-11-26T10:42:34.745Z,1080
2018-11-26T10:43:15.315Z,1000
2018-11-26T10:43:55.879Z,988
2018-11-26T10:44:36.466Z,1044
2018-11-26T10:45:17.053Z,1012
2018-11-26T10:45:57.615Z,948
2018-11-26T10:46:38.174Z,952
2018-11-26T10:47:18.728Z,976
2018-11-26T10:47:59.303Z,988
2018-11-26T10:48:39.915Z,948
2018-11-26T10:49:20.469Z,952
2018-11-26T10:50:01.026Z,936
2018-11-26T10:50:41.609Z,948
2018-11-26T10:51:22.166Z,968
2018-11-26T10:52:02.723Z,956
2018-11-26T10:52:43.306Z,988
2018-11-26T10:53:23.863Z,964
2018-11-26T10:54:04.425Z,940
2018-11-26T10:54:45.002Z,944
2018-11-26T10:55:25.602Z,924
2018-11-26T10:56:06.155Z,932
2018-11-26T10:56:46.714Z,916
2018-11-26T10:57:27.267Z,872
2018-11-26T10:58:07.924Z,856
2018-11-26T10:58:48.477Z,896
2018-11-26T10:59:29.033Z,900
2018-11-26T11:00:09.578Z,908
2018-11-26T11:00:50.144Z,972
2018-11-26T11:01:30.711Z,964
2018-11-26T11:02:11.307Z,904
2018-11-26T11:02:51.943Z,884
2018-11-26T11:03:32.535Z,888
2018-11-26T11:04:13.131Z,968
2018-11-26T11:04:53.712Z,1000
2018-11-26T11:05:34.294Z,980
2018-11-26T11:06:14.853Z,952
2018-11-26T11:06:55.749Z,964
2018-11-26T11:07:36.249Z,1012
2018-11-26T11:08:16.806Z,1092
2018-11-26T11:08:57.377Z,1076
2018-11-26T11:09:38.008Z,1068
2018-11-26T11:10:18.519Z,1016
2018-11-26T11:10:59.083Z,1056
2018-11-26T11:11:39.634Z,1172
2018-11-26T11:12:20.185Z,1196
2018-11-26T11:13:00.755Z,1176
2018-11-26T11:13:41.340Z,1196
2018-11-26T11:14:21.897Z,1168
2018-11-26T11:15:02.453Z,1048
2018-11-26T11:15:43.005Z,980
2018-11-26T11:16:23.560Z,964
2018-11-26T11:17:04.127Z,976
2018-11-26T11:17:44.686Z,952
2018-11-26T11:18:25.267Z,944
2018-11-26T11:19:05.840Z,936
2018-11-26T11:19:46.417Z,940
2018-11-26T11:20:26.980Z,948
2018-11-26T11:21:07.549Z,864
2018-11-26T11:21:48.107Z,840
2018-11-26T11:22:28.667Z,824
2018-11-26T11:23:09.243Z,852
2018-11-26T11:23:49.788Z,820
2018-11-26T11:24:30.329Z,768
2018-11-26T11:25:10.895Z,744
2018-11-26T11:25:51.474Z,756
2018-11-26T11:26:32.037Z,740
2018-11-26T11:27:12.591Z,716
2018-11-26T11:27:53.165Z,732
2018-11-26T11:28:33.965Z,728
2018-11-26T11:29:14.534Z,736
2018-11-26T11:29:55.095Z,752
2018-11-26T11:30:35.683Z,776
2018-11-26T11:31:16.246Z,800
2018-11-26T11:31:56.814Z,784
2018-11-26T11:32:37.392Z,780
2018-11-26T11:36:06.518Z,748
2018-11-26T11:36:47.100Z,740
2018-11-26T11:37:27.657Z,764
2018-11-26T11:38:08.235Z,772
2018-11-26T11:38:48.790Z,764
2018-11-26T11:39:29.359Z,744
2018-11-26T11:40:09.916Z,728
2018-11-26T11:40:50.490Z,720
2018-11-26T11:41:34.222Z,736
2018-11-26T11:42:11.635Z,760
2018-11-26T11:42:52.208Z,772
2018-11-26T11:43:32.764Z,756
2018-11-26T11:44:13.330Z,728
2018-11-26T11:44:53.882Z,728
2018-11-26T11:45:34.436Z,712
2018-11-26T11:46:15.020Z,724
2018-11-26T11:46:55.590Z,744
2018-11-26T11:47:36.206Z,752
2018-11-26T11:48:16.766Z,760
2018-11-26T11:48:57.333Z,776
2018-11-26T11:49:37.882Z,760
2018-11-26T11:50:18.445Z,744
2018-11-26T11:50:59.004Z,720
2018-11-26T11:51:39.568Z,692
2018-11-26T11:52:20.147Z,692
2018-11-26T11:53:00.677Z,688
2018-11-26T11:53:41.234Z,700
2018-11-26T11:54:21.792Z,692
2018-11-26T11:55:02.346Z,676
2018-11-26T11:55:42.895Z,656
2018-11-26T11:56:23.449Z,668
2018-11-26T11:57:04.020Z,704
2018-11-26T11:57:44.624Z,716
2018-11-26T11:58:25.169Z,708
2018-11-26T11:59:05.736Z,700
2018-11-26T11:59:46.325Z,704
2018-11-26T12:00:26.883Z,708
2018-11-26T12:01:10.559Z,692
2018-11-26T12:01:47.987Z,656
2018-11-26T12:02:28.546Z,648
2018-11-26T12:03:09.107Z,636
2018-11-26T12:03:49.667Z,636
2018-11-26T12:04:30.306Z,612
2018-11-26T12:05:10.866Z,616
2018-11-26T12:05:51.423Z,628
2018-11-26T12:06:32.012Z,624
2018-11-26T12:07:12.580Z,612
2018-11-26T12:07:53.147Z,604
2018-11-26T12:08:33.713Z,596
2018-11-26T12:09:14.288Z,576
2018-11-26T12:09:54.847Z,576
2018-11-26T12:10:35.397Z,584
2018-11-26T12:11:15.974Z,588
2018-11-26T12:11:56.535Z,580
2018-11-26T12:12:37.084Z,588
2018-11-26T12:13:17.663Z,580
2018-11-26T12:13:58.228Z,580
2018-11-26T12:14:38.788Z,580
2018-11-26T12:15:19.347Z,576
2018-11-26T12:15:59.914Z,580
2018-11-26T12:16:40.459Z,572
2018-11-26T12:17:21.010Z,564
2018-11-26T12:18:01.587Z,540
2018-11-26T12:18:42.164Z,536
2018-11-26T12:19:22.727Z,552
2018-11-26T12:20:03.280Z,568
2018-11-26T12:20:43.837Z,568
2018-11-26T12:21:24.389Z,560
2018-11-26T12:22:05.027Z,564
2018-11-26T12:22:45.583Z,580
2018-11-26T12:23:26.140Z,592
2018-11-26T12:24:06.711Z,616
2018-11-26T12:24:47.277Z,624
2018-11-26T12:25:27.823Z,608
2018-11-26T12:26:08.379Z,588
2018-11-26T12:26:48.932Z,584
2018-11-26T12:27:29.495Z,572
2018-11-26T12:28:10.066Z,556
2018-11-26T12:28:50.636Z,560
2018-11-26T12:29:31.190Z,564
2018-11-26T12:30:11.748Z,576
2018-11-26T12:30:52.321Z,580
2018-11-26T12:31:32.946Z,572
2018-11-26T12:32:13.503Z,576
2018-11-26T12:32:54.086Z,572
2018-11-26T12:33:34.734Z,568
2018-11-26T12:34:15.298Z,560
2018-11-26T12:34:55.953Z,552
2018-11-26T12:35:36.673Z,544
2018-11-26T12:36:17.242Z,528
2018-11-26T12:36:57.926Z,524
2018-11-26T12:37:38.364Z,536
2018-11-26T12:38:18.902Z,524
2018-11-26T12:38:59.469Z,520
2018-11-26T12:39:40.045Z,512
2018-11-26T12:40:20.613Z,492
2018-11-26T12:41:01.170Z,472
2018-11-26T12:41:41.728Z,460
2018-11-26T12:42:22.295Z,452
2018-11-26T12:43:02.863Z,452
2018-11-26T12:43:43.414Z,464
2018-11-26T12:44:23.961Z,496
2018-11-26T12:45:04.522Z,540
2018-11-26T12:45:45.079Z,576
2018-11-26T12:46:25.790Z,612
2018-11-26T12:47:06.394Z,660
2018-11-26T12:47:46.957Z,708
2018-11-26T12:48:27.514Z,728
2018-11-26T12:49:08.493Z,696
2018-11-26T12:49:49.073Z,692
2018-11-26T12:50:29.944Z,684
2018-11-26T12:51:10.676Z,740
2018-11-26T12:51:51.307Z,824
2018-11-26T12:52:31.861Z,868
2018-11-26T12:53:12.419Z,848
2018-11-26T12:53:52.971Z,792
2018-11-26T12:54:33.539Z,760
2018-11-26T12:55:14.121Z,760
2018-11-26T12:55:54.683Z,736
2018-11-26T12:56:35.266Z,732
2018-11-26T12:57:15.826Z,712
2018-11-26T12:57:56.440Z,688
2018-11-26T12:58:37.003Z,648
2018-11-26T12:59:17.585Z,664
2018-11-26T12:59:58.158Z,660
2018-11-26T13:00:38.706Z,628
2018-11-26T13:01:19.269Z,600
2018-11-26T13:01:59.838Z,564
2018-11-26T13:02:40.399Z,548
2018-11-26T13:03:20.955Z,528
2018-11-26T13:04:01.515Z,500
2018-11-26T13:04:42.079Z,492
2018-11-26T13:05:22.625Z,496
2018-11-26T13:06:03.203Z,488
2018-11-26T13:06:43.792Z,484
2018-11-26T13:07:24.357Z,492
2018-11-26T13:08:04.937Z,496
2018-11-26T13:08:45.541Z,496
2018-11-26T13:09:26.101Z,504
2018-11-26T13:10:06.653Z,540
2018-11-26T13:10:47.216Z,584
2018-11-26T13:11:27.783Z,592
2018-11-26T13:12:08.338Z,604
2018-11-26T13:12:48.902Z,576
2018-11-26T13:13:29.457Z,560
2018-11-26T13:14:10.020Z,580
2018-11-26T13:14:50.626Z,596
2018-11-26T13:15:31.176Z,616
2018-11-26T13:16:11.742Z,568
2018-11-26T13:16:52.302Z,548
2018-11-26T13:17:32.861Z,536
2018-11-26T13:18:13.423Z,512
2018-11-26T13:18:53.979Z,508
2018-11-26T13:19:34.546Z,516
2018-11-26T13:20:15.093Z,516
2018-11-26T13:20:55.654Z,512
2018-11-26T13:21:36.253Z,500
2018-11-26T13:22:16.811Z,492
2018-11-26T13:22:57.404Z,496
2018-11-26T13:23:37.982Z,476
2018-11-26T13:24:18.554Z,472
2018-11-26T13:24:59.109Z,484
2018-11-26T13:25:41.583Z,496
2018-11-26T13:26:20.266Z,484
2018-11-26T13:27:00.835Z,456
2018-11-26T13:27:41.404Z,432
2018-11-26T13:28:21.965Z,428
2018-11-26T13:29:02.547Z,444
2018-11-26T13:29:43.107Z,436
2018-11-26T13:30:23.658Z,408
2018-11-26T13:31:04.249Z,388
2018-11-26T13:31:44.809Z,376
2018-11-26T13:32:25.379Z,360
2018-11-26T13:33:05.943Z,356
2018-11-26T13:33:46.501Z,356
2018-11-26T13:34:27.057Z,348
2018-11-26T13:35:07.620Z,344
2018-11-26T13:35:48.164Z,344
2018-11-26T13:36:28.722Z,340
2018-11-26T13:37:09.281Z,332
2018-11-26T13:37:49.824Z,324
2018-11-26T13:38:30.387Z,324
2018-11-26T13:39:10.950Z,320
2018-11-26T13:39:51.508Z,312
2018-11-26T13:40:32.065Z,308
2018-11-26T13:41:12.630Z,308
2018-11-26T13:41:53.180Z,312
2018-11-26T13:42:33.742Z,296
2018-11-26T13:43:14.288Z,296
2018-11-26T13:43:54.829Z,300
2018-11-26T13:44:35.416Z,296
2018-11-26T13:45:15.984Z,284
2018-11-26T13:45:56.539Z,272
2018-11-26T13:46:37.102Z,268
2018-11-26T13:47:17.657Z,272